createdAt,value
2023-05-20T00:00:38.674Z,2.88
2023-05-20T00:03:05.788Z,4.00
2023-05-20T00:05:32.724Z,4.38
2023-05-20T00:08:00.505Z,12.82
2023-05-20T00:10:27.687Z,6.47
2023-05-20T00:12:54.531Z,6.78
2023-05-20T00:15:21.371Z,9.23
2023-05-20T00:17:48.222Z,3.05
2023-05-20T00:20:15.448Z,1.80
2023-05-20T00:22:42.336Z,1.77
2023-05-20T00:25:09.664Z,1.67
2023-05-20T00:27:36.520Z,2.00
2023-05-20T00:30:03.577Z,1.58
2023-05-20T00:32:30.708Z,2.22
2023-05-20T00:35:01.872Z,1.58
2023-05-20T00:37:29.163Z,1.35
2023-05-20T00:39:56.274Z,1.42
2023-05-20T00:42:28.148Z,1.67
2023-05-20T00:44:56.092Z,1.13
2023-05-20T00:47:32.675Z,3.38
2023-05-20T00:50:00.346Z,1.33
2023-05-20T00:52:30.506Z,1.30
2023-05-20T00:54:59.332Z,4.57
2023-05-20T00:57:26.569Z,16.80
2023-05-20T00:59:53.793Z,9.02
2023-05-20T01:02:21.224Z,11.82
2023-05-20T01:04:48.299Z,29.10
2023-05-20T01:07:19.259Z,24.55
2023-05-20T01:09:46.659Z,8.35
2023-05-20T01:12:18.327Z,9.75
2023-05-20T01:15:00.326Z,9.18
2023-05-20T01:17:31.079Z,15.40
2023-05-20T01:19:59.762Z,10.63
2023-05-20T01:22:29.898Z,24.45
2023-05-20T01:24:57.113Z,21.27
2023-05-20T01:27:26.504Z,22.48
2023-05-20T01:29:54.225Z,7.22
2023-05-20T01:32:49.788Z,7.38
2023-05-20T01:35:21.170Z,6.13
2023-05-20T01:37:52.269Z,10.93
2023-05-20T01:40:21.144Z,4.28
2023-05-20T01:42:53.090Z,4.00
2023-05-20T01:45:20.837Z,1.80
2023-05-20T01:50:14.696Z,7.35
2023-05-20T01:52:41.895Z,3.30
2023-05-20T01:55:09.630Z,6.38
2023-05-20T01:57:37.320Z,3.70
2023-05-20T02:00:07.041Z,3.33
2023-05-20T02:02:41.504Z,2.58
2023-05-20T02:05:12.012Z,3.40
2023-05-20T02:07:39.619Z,3.70
2023-05-20T02:10:07.777Z,2.78
2023-05-20T02:12:35.801Z,4.20
2023-05-20T02:15:04.591Z,1.63
2023-05-20T02:17:32.030Z,4.10
2023-05-20T02:19:59.147Z,0.82
2023-05-20T02:22:26.695Z,1.00
2023-05-20T02:24:53.503Z,0.98
2023-05-20T02:27:20.327Z,0.85
2023-05-20T02:29:47.230Z,1.10
2023-05-20T02:32:14.241Z,1.20
2023-05-20T02:34:41.215Z,1.98
2023-05-20T02:37:08.149Z,0.80
2023-05-20T02:39:35.511Z,1.20
2023-05-20T02:42:02.564Z,1.08
2023-05-20T02:44:29.373Z,0.65
2023-05-20T02:46:56.472Z,0.90
2023-05-20T02:49:24.297Z,0.95
2023-05-20T02:51:52.214Z,0.95
2023-05-20T02:54:19.744Z,1.10
2023-05-20T02:56:47.355Z,0.70
2023-05-20T02:59:14.742Z,0.73
2023-05-20T03:01:41.999Z,1.00
2023-05-20T03:04:10.055Z,1.23
2023-05-20T03:06:38.148Z,0.85
2023-05-20T03:09:05.830Z,0.80
2023-05-20T03:11:32.753Z,1.00
2023-05-20T03:13:59.597Z,0.85
2023-05-20T03:16:28.131Z,0.90
2023-05-20T03:18:55.126Z,0.80
2023-05-20T03:21:23.904Z,0.95
2023-05-20T03:23:50.965Z,0.75
2023-05-20T03:26:18.975Z,0.90
2023-05-20T03:28:46.334Z,1.80
2023-05-20T03:31:13.396Z,1.10
2023-05-20T03:33:40.604Z,1.00
2023-05-20T03:36:07.730Z,0.73
2023-05-20T03:38:34.899Z,0.85
2023-05-20T03:41:01.748Z,0.93
2023-05-20T03:43:28.908Z,1.02
2023-05-20T03:45:56.786Z,1.30
2023-05-20T03:48:23.659Z,0.93
2023-05-20T03:50:50.830Z,0.80
2023-05-20T03:53:19.187Z,0.80
2023-05-20T03:55:46.342Z,0.85
2023-05-20T03:58:15.381Z,0.80
2023-05-20T04:00:42.385Z,1.00
2023-05-20T04:03:10.250Z,1.10
2023-05-20T04:05:37.417Z,1.27
2023-05-20T04:08:09.964Z,1.02
2023-05-20T04:10:36.874Z,0.60
2023-05-20T04:13:04.496Z,0.80
2023-05-20T04:15:31.573Z,0.80
2023-05-20T04:18:01.231Z,0.77
2023-05-20T04:20:28.249Z,1.00
2023-05-20T04:22:57.406Z,1.20
2023-05-20T04:25:24.324Z,0.80
2023-05-20T04:27:54.008Z,0.65
2023-05-20T04:30:21.989Z,0.90
2023-05-20T04:32:50.652Z,0.80
2023-05-20T04:35:18.047Z,1.00
2023-05-20T04:37:49.164Z,0.70
2023-05-20T04:40:17.096Z,0.85
2023-05-20T04:42:44.706Z,0.80
2023-05-20T04:45:12.483Z,0.93
2023-05-20T04:47:41.765Z,0.73
2023-05-20T04:50:11.129Z,0.95
2023-05-20T04:52:41.885Z,1.05
2023-05-20T04:55:10.378Z,0.82
2023-05-20T04:57:41.821Z,0.73
2023-05-20T05:00:12.184Z,1.08
2023-05-20T05:02:40.196Z,0.90
2023-05-20T05:07:34.875Z,10.68
2023-05-20T05:10:01.875Z,0.82
2023-05-20T05:12:32.890Z,0.90
2023-05-20T05:15:00.208Z,0.98
2023-05-20T05:17:29.235Z,0.90
2023-05-20T05:19:57.379Z,1.05
2023-05-20T05:22:25.531Z,1.10
2023-05-20T05:24:52.433Z,0.95
2023-05-20T05:27:19.260Z,0.70
2023-05-20T05:29:46.194Z,0.82
2023-05-20T05:32:13.151Z,1.23
2023-05-20T05:34:40.076Z,1.10
2023-05-20T05:37:07.042Z,1.10
2023-05-20T05:42:04.866Z,1.42
2023-05-20T05:44:32.436Z,0.70
2023-05-20T05:46:59.507Z,0.93
2023-05-20T05:49:27.493Z,1.13
2023-05-20T05:51:54.379Z,0.70
2023-05-20T05:54:21.872Z,0.80
2023-05-20T05:56:51.986Z,1.05
2023-05-20T05:59:19.953Z,1.15
2023-05-20T06:01:46.911Z,0.80
2023-05-20T06:04:15.162Z,0.88
2023-05-20T06:06:42.199Z,0.95
2023-05-20T06:09:09.304Z,0.80
2023-05-20T06:14:03.557Z,1.10
2023-05-20T06:16:30.487Z,1.30
2023-05-20T06:19:01.626Z,0.95
2023-05-20T06:21:31.740Z,0.88
2023-05-20T06:23:58.987Z,0.90
2023-05-20T06:28:53.365Z,7.15
2023-05-20T06:31:20.445Z,1.95
2023-05-20T06:33:48.186Z,0.90
2023-05-20T06:36:15.630Z,0.90
2023-05-20T06:38:42.628Z,1.00
2023-05-20T06:41:11.842Z,1.20
2023-05-20T06:43:40.375Z,0.90
2023-05-20T06:46:17.588Z,1.05
2023-05-20T06:48:55.352Z,1.20
2023-05-20T06:51:22.387Z,0.90
2023-05-20T06:53:50.452Z,1.30
2023-05-20T06:56:17.342Z,1.40
2023-05-20T06:58:44.326Z,1.10
2023-05-20T07:01:11.369Z,1.25
2023-05-20T07:03:39.014Z,0.95
2023-05-20T07:06:06.405Z,1.58
2023-05-20T07:08:33.347Z,1.58
2023-05-20T07:11:00.989Z,3.17
2023-05-20T07:13:28.567Z,1.00
2023-05-20T07:15:55.452Z,1.77
2023-05-20T07:18:22.375Z,1.30
2023-05-20T07:20:54.217Z,1.30
2023-05-20T07:23:50.308Z,0.85
2023-05-20T07:26:17.143Z,1.05
2023-05-20T07:28:45.586Z,1.48
2023-05-20T07:31:12.939Z,1.08
2023-05-20T07:33:43.462Z,2.70
2023-05-20T07:36:11.480Z,1.00
2023-05-20T07:38:41.268Z,1.27
2023-05-20T07:41:12.613Z,1.45
2023-05-20T07:43:39.710Z,1.50
2023-05-20T07:48:34.004Z,1.30
2023-05-20T07:51:01.531Z,1.67
2023-05-20T07:53:28.840Z,1.00
2023-05-20T07:55:56.464Z,1.45
2023-05-20T07:58:24.768Z,1.40
2023-05-20T08:00:51.730Z,1.38
2023-05-20T08:03:19.463Z,1.48
2023-05-20T08:05:56.134Z,4.97
2023-05-20T08:08:24.198Z,1.20
2023-05-20T08:10:58.888Z,0.90
2023-05-20T08:13:26.994Z,1.58
2023-05-20T08:18:22.113Z,1.33
2023-05-20T08:23:15.722Z,1.15
2023-05-20T08:25:42.714Z,2.38
2023-05-20T08:28:11.135Z,1.45
2023-05-20T08:30:38.423Z,1.65
2023-05-20T08:33:05.436Z,1.75
2023-05-20T08:35:32.510Z,1.48
2023-05-20T08:37:59.429Z,9.32
2023-05-20T08:40:27.239Z,1.15
2023-05-20T08:42:54.104Z,1.35
2023-05-20T08:45:27.716Z,2.45
2023-05-20T08:47:59.155Z,1.35
2023-05-20T08:50:26.084Z,1.65
2023-05-20T08:52:53.832Z,1.90
2023-05-20T08:55:29.668Z,1.38
2023-05-20T08:57:57.119Z,1.58
2023-05-20T09:02:55.308Z,1.65
2023-05-20T09:05:22.783Z,1.10
2023-05-20T09:07:49.959Z,3.60
2023-05-20T09:10:17.030Z,1.67
2023-05-20T09:12:43.847Z,1.60
2023-05-20T09:15:11.398Z,1.60
2023-05-20T09:17:38.882Z,1.75
2023-05-20T09:20:10.838Z,1.90
2023-05-20T09:22:40.539Z,1.80
2023-05-20T09:25:07.903Z,1.90
2023-05-20T09:30:01.592Z,1.27
2023-05-20T09:32:28.982Z,1.17
2023-05-20T09:34:56.070Z,1.60
2023-05-20T09:37:25.827Z,1.90
2023-05-20T09:39:56.567Z,1.75
2023-05-20T09:42:28.854Z,1.70
2023-05-20T09:44:58.837Z,2.05
2023-05-20T09:47:26.981Z,1.42
2023-05-20T09:49:54.036Z,2.35
2023-05-20T09:52:21.769Z,1.55
2023-05-20T09:54:50.880Z,4.10
2023-05-20T09:57:17.896Z,3.67
2023-05-20T09:59:46.813Z,2.20
2023-05-20T10:02:14.022Z,1.65
2023-05-20T10:04:45.241Z,1.08
2023-05-20T10:07:46.349Z,2.03
2023-05-20T10:10:27.609Z,2.05
2023-05-20T10:13:13.120Z,6.10
2023-05-20T10:15:58.667Z,13.23
2023-05-20T10:18:34.384Z,3.25
2023-05-20T10:21:01.408Z,2.67
2023-05-20T10:23:29.801Z,1.45
2023-05-20T10:25:58.819Z,1.85
2023-05-20T10:28:34.015Z,1.58
2023-05-20T10:31:00.884Z,1.85
2023-05-20T10:33:28.500Z,1.90
2023-05-20T10:36:02.506Z,2.50
2023-05-20T10:38:29.420Z,1.92
2023-05-20T10:40:57.313Z,2.03
2023-05-20T10:43:28.653Z,2.45
2023-05-20T10:45:57.610Z,1.65
2023-05-20T10:48:29.426Z,2.20
2023-05-20T10:50:58.096Z,2.00
2023-05-20T10:53:33.885Z,2.08
2023-05-20T10:56:01.307Z,2.30
2023-05-20T10:58:28.245Z,2.50
2023-05-20T11:00:56.775Z,2.08
2023-05-20T11:03:25.057Z,2.10
2023-05-20T11:05:52.204Z,1.70
2023-05-20T11:08:27.710Z,1.80
2023-05-20T11:10:57.645Z,2.35
2023-05-20T11:13:25.866Z,1.45
2023-05-20T11:15:53.409Z,2.58
2023-05-20T11:20:47.616Z,1.40
2023-05-20T11:23:15.496Z,2.13
2023-05-20T11:25:42.543Z,1.42
2023-05-20T11:28:15.611Z,3.30
2023-05-20T11:30:43.182Z,1.20
2023-05-20T11:33:12.713Z,1.23
2023-05-20T11:35:45.807Z,1.05
2023-05-20T11:38:13.001Z,0.90
2023-05-20T11:43:19.012Z,1.20
2023-05-20T11:45:48.023Z,1.13
2023-05-20T11:48:17.947Z,1.38
2023-05-20T11:50:47.801Z,1.20
2023-05-20T11:53:19.425Z,1.27
2023-05-20T11:55:52.127Z,1.17
2023-05-20T11:58:20.469Z,0.73
2023-05-20T12:00:52.817Z,1.55
2023-05-20T12:03:24.442Z,0.98
2023-05-20T12:05:52.621Z,0.88
2023-05-20T12:08:19.483Z,1.40
2023-05-20T12:10:46.455Z,1.50
2023-05-20T12:13:13.597Z,0.82
2023-05-20T12:18:08.222Z,0.95
2023-05-20T12:23:04.573Z,0.90
2023-05-20T12:25:31.529Z,0.98
2023-05-20T12:27:59.443Z,1.30
2023-05-20T12:30:26.378Z,0.88
2023-05-20T12:32:53.956Z,0.90
2023-05-20T12:35:37.786Z,0.93
2023-05-20T12:38:05.044Z,1.13
2023-05-20T12:43:00.451Z,1.48
2023-05-20T12:45:27.286Z,2.15
2023-05-20T12:47:55.520Z,4.22
2023-05-20T12:50:23.917Z,1.50
2023-05-20T12:52:50.886Z,1.15
2023-05-20T12:55:17.768Z,1.38
2023-05-20T12:57:45.534Z,1.40
2023-05-20T13:00:13.364Z,1.10
2023-05-20T13:02:42.638Z,1.42
2023-05-20T13:05:10.644Z,0.88
2023-05-20T13:07:37.991Z,0.93
2023-05-20T13:12:32.273Z,0.93
2023-05-20T13:14:59.142Z,1.25
2023-05-20T13:17:27.102Z,1.00
2023-05-20T13:19:54.703Z,0.93
2023-05-20T13:22:21.637Z,1.40
2023-05-20T13:24:48.499Z,1.75
2023-05-20T13:27:15.436Z,0.98
2023-05-20T13:29:43.553Z,1.02
2023-05-20T13:32:10.595Z,1.20
2023-05-20T13:34:38.690Z,2.95
2023-05-20T13:37:06.502Z,0.77
2023-05-20T13:39:33.724Z,0.82
2023-05-20T13:42:00.684Z,0.70
2023-05-20T13:44:27.530Z,0.77
2023-05-20T13:46:54.448Z,0.80
2023-05-20T13:49:21.903Z,1.10
2023-05-20T13:51:48.867Z,0.93
2023-05-20T13:54:15.940Z,0.90
2023-05-20T13:56:42.918Z,0.90
2023-05-20T13:59:09.792Z,0.90
2023-05-20T14:01:38.987Z,0.90
2023-05-20T14:04:07.392Z,1.27
2023-05-20T14:06:34.282Z,1.25
2023-05-20T14:09:02.591Z,0.95
2023-05-20T14:11:29.449Z,0.70
2023-05-20T14:13:56.285Z,1.10
2023-05-20T14:16:23.346Z,1.10
2023-05-20T14:18:50.511Z,0.95
2023-05-20T14:21:17.500Z,1.02
2023-05-20T14:23:45.092Z,1.00
2023-05-20T14:26:12.064Z,1.27
2023-05-20T14:28:39.417Z,0.70
2023-05-20T14:31:08.892Z,1.30
2023-05-20T14:33:36.728Z,1.30
2023-05-20T14:36:04.020Z,1.00
2023-05-20T14:38:30.927Z,2.88
2023-05-20T14:40:57.883Z,1.00
2023-05-20T14:43:24.825Z,2.88
2023-05-20T14:45:52.594Z,1.02
2023-05-20T14:48:19.485Z,0.60
2023-05-20T14:50:48.943Z,1.13
2023-05-20T14:53:17.464Z,1.08
2023-05-20T14:55:44.506Z,0.93
2023-05-20T14:58:11.790Z,1.40
2023-05-20T15:00:39.497Z,1.15
2023-05-20T15:03:06.692Z,1.00
2023-05-20T15:05:33.858Z,1.63
2023-05-20T15:08:00.750Z,1.45
2023-05-20T15:10:27.635Z,1.40
2023-05-20T15:12:54.909Z,1.20
2023-05-20T15:22:45.648Z,1.00
2023-05-20T15:25:12.613Z,1.10
2023-05-20T15:27:42.110Z,1.42
2023-05-20T15:30:10.027Z,2.85
2023-05-20T15:32:37.018Z,1.10
2023-05-20T15:35:04.305Z,1.50
2023-05-20T15:39:58.226Z,1.30
2023-05-20T15:42:25.810Z,1.23
2023-05-20T15:44:52.862Z,1.10
2023-05-20T15:47:19.806Z,1.40
2023-05-20T15:49:46.767Z,1.40
2023-05-20T15:52:14.048Z,1.33
2023-05-20T15:54:41.144Z,1.33
2023-05-20T15:57:08.059Z,0.90
2023-05-20T15:59:34.972Z,1.33
2023-05-20T16:02:01.892Z,1.02
2023-05-20T16:04:28.977Z,1.42
2023-05-20T16:06:56.242Z,1.30
2023-05-20T16:09:23.150Z,1.00
2023-05-20T16:11:50.079Z,2.00
2023-05-20T16:14:17.030Z,1.15
2023-05-20T16:16:44.009Z,1.10
2023-05-20T16:19:11.078Z,0.93
2023-05-20T16:21:38.085Z,1.08
2023-05-20T16:24:05.480Z,1.50
2023-05-20T16:26:32.383Z,1.10
2023-05-20T16:28:59.259Z,1.15
2023-05-20T16:31:26.590Z,1.50
2023-05-20T16:33:53.598Z,0.82
2023-05-20T16:36:21.481Z,1.10
2023-05-20T16:38:48.390Z,2.20
2023-05-20T16:41:16.444Z,1.58
2023-05-20T16:43:43.402Z,1.25
2023-05-20T16:46:12.365Z,1.55
2023-05-20T16:48:39.360Z,1.38
2023-05-20T16:51:06.289Z,0.80
2023-05-20T16:53:33.142Z,1.10
2023-05-20T16:56:00.237Z,1.30
2023-05-20T17:00:55.103Z,1.30
2023-05-20T17:03:22.407Z,1.23
2023-05-20T17:05:49.328Z,1.25
2023-05-20T17:08:16.335Z,1.20
2023-05-20T17:10:43.320Z,1.33
2023-05-20T17:13:10.407Z,2.78
2023-05-20T17:15:37.405Z,1.50
2023-05-20T17:18:04.436Z,1.55
2023-05-20T17:20:31.982Z,1.38
2023-05-20T17:22:58.995Z,1.10
2023-05-20T17:25:25.952Z,1.50
2023-05-20T17:27:52.971Z,1.48
2023-05-20T17:30:20.027Z,1.95
2023-05-20T17:32:46.982Z,1.60
2023-05-20T17:35:13.909Z,1.30
2023-05-20T17:37:41.283Z,1.55
2023-05-20T17:42:35.556Z,1.58
2023-05-20T17:45:02.423Z,1.67
2023-05-20T17:47:30.431Z,2.40
2023-05-20T17:49:59.841Z,1.05
2023-05-20T17:52:27.052Z,2.70
2023-05-20T17:54:53.912Z,1.90
2023-05-20T17:57:21.020Z,2.08
2023-05-20T17:59:47.913Z,3.80
2023-05-20T18:02:14.873Z,1.55
2023-05-20T18:04:41.741Z,1.20
2023-05-20T18:07:09.696Z,1.58
2023-05-20T18:09:36.625Z,2.13
2023-05-20T18:12:03.616Z,2.58
2023-05-20T18:14:30.598Z,2.08
2023-05-20T18:16:57.585Z,1.85
2023-05-20T18:19:25.176Z,1.60
2023-05-20T18:21:52.234Z,2.90
2023-05-20T18:24:20.441Z,1.15
2023-05-20T18:26:47.549Z,1.42
2023-05-20T18:29:14.522Z,1.95
2023-05-20T18:31:43.278Z,2.13
2023-05-20T18:34:10.619Z,1.55
2023-05-20T18:36:37.741Z,1.67
2023-05-20T18:39:04.858Z,1.88
2023-05-20T18:44:15.500Z,1.77
2023-05-20T18:46:43.073Z,7.35
2023-05-20T18:49:12.871Z,1.88
2023-05-20T18:51:40.227Z,1.95
2023-05-20T18:56:34.740Z,1.63
2023-05-20T18:59:01.659Z,2.10
2023-05-20T19:01:28.633Z,1.88
2023-05-20T19:03:55.781Z,1.83
2023-05-20T19:06:22.771Z,2.22
2023-05-20T19:08:49.850Z,2.20
2023-05-20T19:11:17.154Z,1.95
2023-05-20T19:13:44.194Z,1.58
2023-05-20T19:16:11.602Z,4.13
2023-05-20T19:18:38.679Z,2.33
2023-05-20T19:21:05.776Z,3.42
2023-05-20T19:23:32.671Z,2.42
2023-05-20T19:26:00.679Z,1.90
2023-05-20T19:28:27.704Z,1.80
2023-05-20T19:30:54.563Z,2.17
2023-05-20T19:33:21.815Z,5.35
2023-05-20T19:35:49.212Z,2.10
2023-05-20T19:40:46.998Z,2.47
2023-05-20T19:43:13.900Z,2.03
2023-05-20T19:45:40.931Z,1.98
2023-05-20T19:48:07.981Z,2.78
2023-05-20T19:50:34.933Z,2.80
2023-05-20T19:53:06.115Z,3.13
2023-05-20T19:55:35.257Z,4.57
2023-05-20T19:58:02.341Z,2.28
2023-05-20T20:00:29.559Z,2.55
2023-05-20T20:02:57.638Z,5.47
2023-05-20T20:05:25.864Z,2.53
2023-05-20T20:07:53.067Z,2.63
2023-05-20T20:10:20.275Z,1.92
2023-05-20T20:12:47.248Z,2.90
2023-05-20T20:15:14.307Z,2.88
2023-05-20T20:17:45.360Z,2.78
2023-05-20T20:20:14.072Z,2.95
2023-05-20T20:22:41.728Z,2.65
2023-05-20T20:25:08.973Z,2.72
2023-05-20T20:27:35.908Z,2.40
2023-05-20T20:30:03.169Z,5.57
2023-05-20T20:32:30.209Z,2.25
2023-05-20T20:34:57.981Z,2.17
2023-05-20T20:37:26.735Z,2.78
2023-05-20T20:39:54.517Z,2.35
2023-05-20T20:42:24.768Z,2.95
2023-05-20T20:44:52.820Z,2.70
2023-05-20T20:47:19.726Z,2.35
2023-05-20T20:49:46.584Z,2.95
2023-05-20T20:52:14.440Z,2.05
2023-05-20T20:54:43.148Z,3.00
2023-05-20T20:57:11.366Z,3.03
2023-05-20T20:59:38.390Z,2.45
2023-05-20T21:02:06.364Z,2.90
2023-05-20T21:04:33.366Z,2.42
2023-05-20T21:07:01.802Z,3.47
2023-05-20T21:09:29.076Z,2.15
2023-05-20T21:11:57.071Z,3.00
2023-05-20T21:14:24.514Z,2.55
2023-05-20T21:19:18.788Z,2.88
2023-05-20T21:21:45.703Z,3.10
2023-05-20T21:24:12.628Z,3.03
2023-05-20T21:26:39.534Z,2.90
2023-05-20T21:29:07.344Z,2.60
2023-05-20T21:31:34.274Z,2.53
2023-05-20T21:34:01.246Z,2.83
2023-05-20T21:36:28.081Z,2.40
2023-05-20T21:38:55.039Z,2.05
2023-05-20T21:41:23.310Z,3.92
2023-05-20T21:43:50.357Z,3.00
2023-05-20T21:46:17.243Z,3.28
2023-05-20T21:48:44.233Z,3.10
2023-05-20T21:51:11.315Z,2.15
2023-05-20T21:53:38.200Z,2.63
2023-05-20T21:56:05.442Z,2.28
2023-05-20T21:58:32.404Z,3.22
2023-05-20T22:00:59.263Z,2.40
2023-05-20T22:03:26.260Z,3.05
2023-05-20T22:05:53.146Z,2.80
2023-05-20T22:08:20.065Z,2.70
2023-05-20T22:10:47.058Z,2.97
2023-05-20T22:13:13.950Z,2.72
2023-05-20T22:15:40.898Z,2.95
2023-05-20T22:18:08.041Z,3.97
2023-05-20T22:20:35.058Z,2.17
2023-05-20T22:23:01.975Z,2.50
2023-05-20T22:25:28.901Z,3.20
2023-05-20T22:27:55.860Z,2.20
2023-05-20T22:30:22.807Z,2.92
2023-05-20T22:32:49.721Z,2.65
2023-05-20T22:35:16.823Z,2.92
2023-05-20T22:37:43.734Z,2.65
2023-05-20T22:40:11.144Z,2.25
2023-05-20T22:45:05.514Z,2.35
2023-05-20T22:47:32.437Z,2.25
2023-05-20T22:50:02.299Z,2.75
2023-05-20T22:52:29.639Z,3.22
2023-05-20T22:54:57.260Z,3.30
2023-05-20T22:57:25.235Z,3.25
2023-05-20T22:59:53.876Z,3.13
2023-05-20T23:02:21.531Z,2.78
2023-05-20T23:04:48.627Z,2.83
2023-05-20T23:07:18.923Z,2.67
2023-05-20T23:09:49.461Z,2.58
2023-05-20T23:12:16.665Z,2.75
2023-05-20T23:14:43.550Z,2.53
2023-05-20T23:17:10.498Z,2.20
2023-05-20T23:19:37.357Z,2.40
2023-05-20T23:22:04.570Z,2.75
2023-05-20T23:24:31.580Z,5.65
2023-05-20T23:26:59.345Z,2.53
2023-05-20T23:29:26.895Z,2.53
2023-05-20T23:31:53.912Z,2.13
2023-05-20T23:34:21.330Z,2.00
2023-05-20T23:39:17.438Z,1.85
2023-05-20T23:41:45.157Z,2.70
2023-05-20T23:44:11.996Z,2.78
2023-05-20T23:46:38.895Z,2.20
2023-05-20T23:49:06.706Z,5.13
2023-05-20T23:51:35.390Z,2.70
2023-05-20T23:54:02.231Z,1.90
2023-05-20T23:56:29.240Z,2.78
2023-05-20T23:58:57.632Z,3.15
